Terminal Aerodrome Forecast
Issued by NWS

Home | Current Version | Previous Version | Text Only | Print | Product List | Glossary On
Versions: 1 2 3 4 5 6 7 8 9 10 11 12 13 14 15 16 17
000
FTUS44 KLIX 230500
TAFMCB
TAF
KMCB 230530Z 2306/2406 00000KT P6SM SKC
     FM230900 02003KT 4SM BR FEW002
     FM231100 02002KT 1/2SM FG SCT002
     FM231400 02004KT P6SM FEW040=

USA.gov is the U.S. government's official web portal to all federal, state and local government web resources and services.